Terminal Aerodrome Forecast
Issued by NWS

Home | Current Version | Previous Version | Text Only | Print | Product List | Glossary On
Versions: 1 2 3 4 5 6 7 8 9 10 11 12 13 14 15 16 17 18 19 20 21 22 23 24 25 26 27 28
434
FTUS41 KBTV 121418 AAA
TAFPBG
TAF AMD
KPBG 121418Z 1214/1312 16007KT 1 1/2SM -SN BR OVC025
      TEMPO 1214/1218 3/4SM -SN BR OVC020
     FM122200 10004KT 1 1/2SM -SN BR OVC015
     FM130400 31010G16KT 2SM -SN BR OVC025
     FM131000 29010G16KT 6SM BR VCSH OVC030
     FM131100 29011G18KT P6SM VCSH OVC035=

USA.gov is the U.S. government's official web portal to all federal, state and local government web resources and services.